createdAt,value
2019-05-03T00:07:46.424Z,954.9
2019-05-03T00:17:49.751Z,954.8
2019-05-03T00:27:53.088Z,954.7
2019-05-03T00:37:56.396Z,954.7
2019-05-03T00:48:02.161Z,954.9
2019-05-03T00:58:05.497Z,954.7
2019-05-03T01:08:08.823Z,954.8
2019-05-03T01:18:12.607Z,954.8
2019-05-03T01:28:15.927Z,954.8
2019-05-03T01:38:19.808Z,954.8
2019-05-03T01:48:23.134Z,954.8
2019-05-03T01:58:26.483Z,954.9
2019-05-03T02:08:29.817Z,954.9
2019-05-03T02:18:33.165Z,955
2019-05-03T02:28:36.510Z,955
2019-05-03T02:38:42.678Z,955
2019-05-03T02:48:46.264Z,955
2019-05-03T02:58:49.610Z,955.1
2019-05-03T03:08:55.883Z,955
2019-05-03T03:18:59.506Z,955.1
2019-05-03T03:29:06.434Z,955.1
2019-05-03T03:39:09.780Z,955.3
2019-05-03T03:49:15.800Z,955.2
2019-05-03T03:59:19.149Z,955.4
2019-05-03T04:09:26.196Z,955.5
2019-05-03T04:19:29.531Z,955.5
2019-05-03T04:29:32.874Z,955.7
2019-05-03T04:39:36.541Z,955.8
2019-05-03T04:49:39.897Z,955.9
2019-05-03T04:59:45.573Z,955.9
2019-05-03T05:09:48.942Z,956
2019-05-03T05:19:52.280Z,956
2019-05-03T05:29:55.727Z,955.9
2019-05-03T05:39:59.054Z,956.1
2019-05-03T05:50:02.397Z,956.3
2019-05-03T06:00:05.869Z,956.4
2019-05-03T06:10:09.231Z,956.3
2019-05-03T06:20:12.608Z,956.4
2019-05-03T06:30:15.937Z,956.4
2019-05-03T06:40:19.276Z,956.4
2019-05-03T06:50:29.221Z,956.5
2019-05-03T07:00:32.554Z,956.2
2019-05-03T07:10:35.904Z,956.3
2019-05-03T07:20:39.245Z,956.4
2019-05-03T07:30:42.577Z,956.3
2019-05-03T07:40:46.025Z,956.4
2019-05-03T07:50:49.371Z,956.4
2019-05-03T08:01:10.340Z,956.3
2019-05-03T08:11:14.843Z,956.7
2019-05-03T08:21:18.186Z,957.1
2019-05-03T08:31:26.827Z,957.5
2019-05-03T08:41:30.143Z,957.6
2019-05-03T08:51:35.451Z,957.8
2019-05-03T09:01:39.765Z,958
2019-05-03T09:11:45.540Z,958.2
2019-05-03T09:21:48.898Z,958.3
2019-05-03T09:31:52.233Z,957.7
2019-05-03T09:41:55.749Z,957.2
2019-05-03T09:51:59.618Z,957
2019-05-03T10:02:05.284Z,956.8
2019-05-03T10:12:08.606Z,956.7
2019-05-03T10:22:11.921Z,956.7
2019-05-03T10:32:16.305Z,956.5
2019-05-03T10:42:19.639Z,956.5
2019-05-03T10:52:22.978Z,956.4
2019-05-03T11:02:26.329Z,956.2
2019-05-03T11:12:29.665Z,956
2019-05-03T11:22:35.218Z,955.7
2019-05-03T11:32:38.562Z,955.5
2019-05-03T11:42:41.891Z,955.2
2019-05-03T11:52:47.638Z,955
2019-05-03T12:02:50.982Z,954.8
2019-05-03T12:12:55.848Z,954.7
2019-05-03T12:23:05.085Z,954.5
2019-05-03T12:33:09.078Z,954.3
2019-05-03T12:43:12.421Z,954.3
2019-05-03T12:53:15.761Z,954.2
2019-05-03T13:03:19.095Z,954.1
2019-05-03T13:13:22.414Z,954.2
2019-05-03T13:23:25.824Z,954
2019-05-03T13:33:29.177Z,953.9
2019-05-03T13:43:32.507Z,953.8
2019-05-03T13:53:36.356Z,953.7
2019-05-03T14:03:39.685Z,953.6
2019-05-03T14:13:44.837Z,953.6
2019-05-03T14:23:48.179Z,953.4
2019-05-03T14:33:51.495Z,953.4
2019-05-03T14:43:56.084Z,953.3
2019-05-03T14:53:59.403Z,953.3
2019-05-03T15:04:02.730Z,953.3
2019-05-03T15:14:06.098Z,953.1
2019-05-03T15:24:09.443Z,953.1
2019-05-03T15:34:12.772Z,952.9
2019-05-03T15:44:16.112Z,952.8
2019-05-03T15:54:19.447Z,952.7
2019-05-03T16:04:22.761Z,952.7
2019-05-03T16:14:26.085Z,952.6
2019-05-03T16:24:29.398Z,952.6
2019-05-03T16:34:35.197Z,952.6
2019-05-03T16:44:38.591Z,952.5
2019-05-03T16:54:41.940Z,952.5
2019-05-03T17:04:45.460Z,952.6
2019-05-03T17:14:48.841Z,952.5
2019-05-03T17:24:52.195Z,952.5
2019-05-03T17:34:55.553Z,952.5
2019-05-03T17:44:58.884Z,952.7
2019-05-03T17:55:02.222Z,952.6
2019-05-03T18:05:05.561Z,952.6
2019-05-03T18:15:08.916Z,952.6
2019-05-03T18:25:14.408Z,952.7
2019-05-03T18:35:17.730Z,952.7
2019-05-03T18:45:21.057Z,952.8
2019-05-03T18:55:25.524Z,953
2019-05-03T19:05:28.868Z,953.3
2019-05-03T19:15:32.195Z,953.3
2019-05-03T19:25:49.878Z,953.3
2019-05-03T19:35:55.222Z,953.5
2019-05-03T19:45:58.570Z,953.7
2019-05-03T19:56:01.889Z,953.8
2019-05-03T20:06:05.237Z,953.9
2019-05-03T20:16:08.592Z,953.9
2019-05-03T20:26:11.938Z,953.8
2019-05-03T20:36:15.276Z,953.8
2019-05-03T20:46:18.615Z,953.9
2019-05-03T20:56:21.964Z,954.1
2019-05-03T21:06:36.212Z,954.1
2019-05-03T21:16:39.558Z,954.2
2019-05-03T21:26:45.040Z,954.1
2019-05-03T21:36:48.463Z,954.2
2019-05-03T21:46:51.800Z,954.3
2019-05-03T21:56:58.265Z,954.4
2019-05-03T22:07:01.576Z,954.5
2019-05-03T22:17:04.920Z,954.5
2019-05-03T22:27:08.258Z,954.4
2019-05-03T22:37:11.609Z,954.4
2019-05-03T22:47:15.041Z,954.4
2019-05-03T22:57:18.413Z,954.2
2019-05-03T23:07:21.754Z,954.2
2019-05-03T23:17:25.705Z,954.1
2019-05-03T23:27:29.122Z,954
2019-05-03T23:37:34.937Z,953.8
2019-05-03T23:47:38.296Z,953.6
2019-05-03T23:57:41.632Z,953.5
